Saturday, October 25, 2014
12:45 UTC
  |  Log In   |  Register Free
Airport Search:

Visalia Municipal Airport
(KVIS)

Visalia Municipal Airport Diagram
No Airport Diagram Available

FAA data valid effective September 18, 2014 - November 13, 2014 (unless otherwise noted).

 
 
 
 
 
 
 
 
 
 
 
 
 
 

Current Aviation Weather for Visalia Municipal Airport (KVIS)

The most recent METAR observation for KVIS was updated at: 1218
METAR Summary (Translated METAR)
KVIS
251155Z 09006KT 10SM CLR 12/06 A2998 RMK AO1 10170 20110 52010
KHJO
251153Z AUTO 00000KT 4SM HZ CLR 11/08 A2998 RMK AO2 SLP151 T01060078 10161 20100 53006
(11.4 nm SW from KVIS)
KPTV
251155Z 11005KT 10SM CLR 12/06 A3000 RMK AO1 10150 20110 52010
(23.6 nm SE from KVIS)
TAF Summary (Translated TAF)
KVIS
251141Z 2512/2612 12006KT P6SM SCT250 FM251800 28010KT 6SM HZ BKN250
  Airport Weather Conditions for KVIS

 Current Weather at VIS
54° F
Fair
East winds at 6.9 mph
VIS NOAA Radar

Pressure: 29.98 in
Humidity: 67%
Wind: East at 6.9 MPH (6 KT)
Dew Point: 42.8°F
Visibility: 10.00 mi


Airport Weather Forecast for KVIS

Translated METAR and TAF for KVIS
Translated METAR for KVIS (1240 UTC 25 October 2014)
found at http://aviationweather.gov/adds/metars/
 
METAR text: KVIS 251235Z 11004KT 10SM CLR 12/06 A2998 RMK AO1
Conditions at: KVIS (VISALIA MUNI , CA, US) observed 1235 UTC 25 October 2014
Temperature: 12.0°C (54°F)
Dewpoint: 6.0°C (43°F) [RH = 67%]
Pressure (altimeter): 29.98 inches Hg (1015.3 mb)
Winds: from the ESE (110 degrees) at 5 MPH (4 knots; 2.1 m/s)
Visibility: 10 or more miles (16+ km)
Ceiling: at least 12,000 feet AGL
Clouds: sky clear below 12,000 feet AGL
Weather: no significant weather observed at this time
Translated TAF for KVIS
Forecast for: KVIS (VISALIA MUNI , CA, US)
TAF Text: KVIS 251216Z 2512/2612 12006KT P6SM SCT250
Forecast period: 1200 to 2000 UTC 25 October 2014
Forecast type: FROM: standard forecast or significant change
Winds: from the ESE (120 degrees) at 7 MPH (6 knots; 3.1 m/s)
Visibility: 6 or more miles (10+ km)
Clouds: scattered clouds at 25000 feet AGL
Weather: no significant weather forecast for this period
TAF Text: FM252000 22008KT P6SM SCT050 BKN120
Forecast period: 2000 UTC 25 October 2014 to 0300 UTC 26 October 2014
Forecast type: FROM: standard forecast or significant change
Winds: from the SW (220 degrees) at 9 MPH (8 knots; 4.2 m/s)
Visibility: 6 or more miles (10+ km)
Ceiling: 12000 feet AGL
Clouds: scattered clouds at 5000 feet AGL
broken clouds at 12000 feet AGL
Weather: no significant weather forecast for this period
TAF Text: FM260300 32007KT P6SM BKN060
Forecast period: 0300 to 1200 UTC 26 October 2014
Forecast type: FROM: standard forecast or significant change
Winds: from the NW (320 degrees) at 8 MPH (7 knots; 3.6 m/s)
Visibility: 6 or more miles (10+ km)
Ceiling: 6000 feet AGL
Clouds: broken clouds at 6000 feet AGL
Weather: no significant weather forecast for this period

Find All Airport Services Find A Hotel Find A Rental Car Find A Golf Course Find A Restaurant $100 Hamburger



FBO's on the Field
FBO Company Facility Photos Services Transportation Aviation Fuel Prices: Prices include tax
Catering Weather Repair Courtesy Rental Type 100LL JetA JetA+ MOGAS 8087
 
Add another FBO Facility Photos Catering Weather Repair Courtesy Rental Type 100LL JetA JetA+ MOGAS 8087
Services Transportation Aviation Fuel Prices: Prices include tax
There are no FBO's currently reporting fuel at VIS. List your FBO now


model-print
model-print
model-print
model-print